Hayase Maru — JD2583 — position and weather

sailwx.info

Track history (hours):
 
Tides and Currents Weather Stations Pressure Air Temp Water Temp Dewpoint Dewpoint Depression Visibility Wind Speed Wind Dir Waves Ship Positions

Hayase Maru

Last reported at 2015-May-14 06:14 UTC. Time now 2015-May-24 05:19 UTC.
Position N 34°34' E 138°37'.
Warning: this ship's position is 9 days out of date.

Length 73 m; draft 4 m.

Type: Ship. MMSI: 431000395.

Date/timePositionNaut miles runAvg speedWind from/ knotsBaromVisibWave heightAir tempDewpointWater temp
2015-May-14 06:14N 34°34' E 138°37'46 9.2
2015-May-14 01:18N 34°56' E 139°26'10 9.5
2015-May-14 00:17N 35°02' E 139°35'710.1
2015-May-13 23:33N 35°07' E 139°42'10 9.8
2015-May-13 22:34N 35°16' E 139°46'7 6.9
2015-May-13 21:34N 35°22' E 139°40'0 0.1
2015-May-13 20:25N 35°22' E 139°40'0 0.0
2015-May-13 19:31N 35°22' E 139°40'0 0.0
2015-May-13 18:25N 35°22' E 139°41'0 0.1
2015-May-13 17:34N 35°22' E 139°41'0 0.0
2015-May-13 16:31N 35°22' E 139°41'0 0.1
2015-May-13 15:34N 35°22' E 139°40'0 0.0
2015-May-13 14:31N 35°22' E 139°41'0 0.0
2015-May-13 13:28N 35°22' E 139°41'0 0.0
2015-May-13 12:34N 35°22' E 139°41'0 0.0
2015-May-13 11:31N 35°22' E 139°41'0 0.0
2015-May-13 10:31N 35°22' E 139°41'0 0.0
2015-May-13 09:31N 35°22' E 139°41'0 0.1
2015-May-13 08:25N 35°22' E 139°40'0 0.1
2015-May-13 07:34N 35°22' E 139°41'0 0.0
2015-May-13 06:34N 35°22' E 139°41'0 0.0
2015-May-13 05:31N 35°22' E 139°41'0 0.0
2015-May-13 04:34N 35°22' E 139°41'0 0.0
2015-May-13 03:28N 35°22' E 139°41'0 0.0
2015-May-13 02:28N 35°22' E 139°41'0 0.0
2015-May-13 01:34N 35°22' E 139°41'0 0.0
2015-May-13 00:31N 35°22' E 139°41'0 0.0
2015-May-12 23:34N 35°22' E 139°41'0 0.0
2015-May-12 22:33N 35°22' E 139°41'0 0.0
2015-May-12 21:32N 35°22' E 139°41'0 0.0
2015-May-12 20:32N 35°22' E 139°41'0 0.0
2015-May-12 19:33N 35°22' E 139°41'0 0.0
2015-May-12 18:33N 35°22' E 139°41'0 0.0
2015-May-12 17:33N 35°22' E 139°41'0 0.0
2015-May-12 16:26N 35°22' E 139°41'0 0.0
2015-May-12 15:33N 35°22' E 139°41'0 0.0
2015-May-12 14:30N 35°22' E 139°40'0 0.4
2015-May-12 13:32N 35°22' E 139°40'0 0.0
2015-May-12 12:26N 35°22' E 139°40'0 0.0
2015-May-12 11:33N 35°22' E 139°40'0 0.0
2015-May-12 10:34N 35°22' E 139°40'0 0.0
2015-May-12 09:33N 35°22' E 139°40'0 0.0
2015-May-12 08:31N 35°22' E 139°40'0 0.0
2015-May-12 07:33N 35°22' E 139°40'0 0.0
2015-May-12 06:33N 35°22' E 139°40'0 0.0
2015-May-12 05:33N 35°22' E 139°40'0 0.0
2015-May-12 04:32N 35°22' E 139°40'0 0.0
2015-May-12 03:30N 35°22' E 139°40'0 0.0
2015-May-12 02:33N 35°22' E 139°40'0 0.0
2015-May-12 01:33N 35°22' E 139°40'0 0.0
2015-May-12 00:32N 35°22' E 139°40'0 0.0
2015-May-11 23:33N 35°22' E 139°40'0 0.0
2015-May-11 22:33N 35°22' E 139°40'0 0.0
2015-May-11 21:33N 35°22' E 139°40'0 0.0
2015-May-11 20:33N 35°22' E 139°40'0 0.0
2015-May-11 19:33N 35°22' E 139°40'0 0.0
2015-May-11 18:33N 35°22' E 139°40'0 0.0
2015-May-11 17:33N 35°22' E 139°40'0 0.0
2015-May-11 16:33N 35°22' E 139°40'0 0.0
2015-May-11 15:33N 35°22' E 139°40'0 0.0
2015-May-11 14:33N 35°22' E 139°40'0 0.0
2015-May-11 13:33N 35°22' E 139°40'0 0.0
2015-May-11 12:33N 35°22' E 139°40'0 0.0
2015-May-11 11:33N 35°22' E 139°40'0 0.0
2015-May-11 10:33N 35°22' E 139°40'0 0.0
2015-May-11 09:33N 35°22' E 139°40'0 0.0
2015-May-11 08:32N 35°22' E 139°40'0 0.0
2015-May-11 07:32N 35°22' E 139°40'1 1.3
2015-May-11 06:33N 35°23' E 139°41'8 8.2
2015-May-11 05:33N 35°21' E 139°51'0 0.1
2015-May-11 04:33N 35°21' E 139°51'0 0.0
2015-May-11 03:33N 35°21' E 139°51'0 0.0
2015-May-11 02:33N 35°21' E 139°51'0 0.0
2015-May-11 01:33N 35°21' E 139°51'0 0.0
2015-May-11 00:33N 35°21' E 139°51'0 0.0
2015-May-10 23:33N 35°21' E 139°51'0 0.0
2015-May-10 22:33N 35°21' E 139°51'0 0.0
2015-May-10 21:33N 35°21' E 139°51'0 0.0
2015-May-10 20:33N 35°21' E 139°51'0 0.0
2015-May-10 19:33N 35°21' E 139°51'0 0.0
2015-May-10 18:33N 35°21' E 139°51'0 0.0
2015-May-10 17:33N 35°21' E 139°51'0 0.0
2015-May-10 16:33N 35°21' E 139°51'0 0.0
2015-May-10 15:33N 35°21' E 139°51'0 0.0
2015-May-10 14:33N 35°21' E 139°51'0 0.0
2015-May-10 13:33N 35°21' E 139°51'0 0.0
2015-May-10 12:33N 35°21' E 139°51'0 0.0
2015-May-10 11:33N 35°21' E 139°51'0 0.0
2015-May-10 10:33N 35°21' E 139°51'0 0.0
2015-May-10 09:33N 35°21' E 139°51'0 0.0
2015-May-10 08:33N 35°21' E 139°51'0 0.0
2015-May-10 07:33N 35°21' E 139°51'0 0.0
2015-May-10 06:33N 35°21' E 139°51'0 0.0
2015-May-10 05:33N 35°21' E 139°51'2 1.8
2015-May-10 04:31N 35°22' E 139°49'0 0.1
2015-May-10 03:31N 35°22' E 139°49'3 3.2
2015-May-10 02:34N 35°22' E 139°45'1110.8
2015-May-10 01:33N 35°11' E 139°47'1111.3
2015-May-10 00:33N 35°02' E 139°38'  
Track history (hours):
 
Tides and Currents Weather Stations Pressure Air Temp Water Temp Dewpoint Dewpoint Depression Visibility Wind Speed Wind Dir Waves Ship Positions

Hayase Maru

Last reported at 2015-May-14 06:14 UTC. Time now 2015-May-24 05:19 UTC.
Position N 34°34' E 138°37'.
Warning: this ship's position is 9 days out of date.

Length 73 m; draft 4 m.

Type: Ship. MMSI: 431000395.

Date/timePositionNaut miles runAvg speedWind from/ knotsBaromVisibWave heightAir tempDewpointWater temp
2015-May-14 06:14N 34°34' E 138°37'46 9.2
2015-May-14 01:18N 34°56' E 139°26'10 9.5
2015-May-14 00:17N 35°02' E 139°35'710.1
2015-May-13 23:33N 35°07' E 139°42'10 9.8
2015-May-13 22:34N 35°16' E 139°46'7 6.9
2015-May-13 21:34N 35°22' E 139°40'0 0.1
2015-May-13 20:25N 35°22' E 139°40'0 0.0
2015-May-13 19:31N 35°22' E 139°40'0 0.0
2015-May-13 18:25N 35°22' E 139°41'0 0.1
2015-May-13 17:34N 35°22' E 139°41'0 0.0
2015-May-13 16:31N 35°22' E 139°41'0 0.1
2015-May-13 15:34N 35°22' E 139°40'0 0.0
2015-May-13 14:31N 35°22' E 139°41'0 0.0
2015-May-13 13:28N 35°22' E 139°41'0 0.0
2015-May-13 12:34N 35°22' E 139°41'0 0.0
2015-May-13 11:31N 35°22' E 139°41'0 0.0
2015-May-13 10:31N 35°22' E 139°41'0 0.0
2015-May-13 09:31N 35°22' E 139°41'0 0.1
2015-May-13 08:25N 35°22' E 139°40'0 0.1
2015-May-13 07:34N 35°22' E 139°41'0 0.0
2015-May-13 06:34N 35°22' E 139°41'0 0.0
2015-May-13 05:31N 35°22' E 139°41'0 0.0
2015-May-13 04:34N 35°22' E 139°41'0 0.0
2015-May-13 03:28N 35°22' E 139°41'0 0.0
2015-May-13 02:28N 35°22' E 139°41'0 0.0
2015-May-13 01:34N 35°22' E 139°41'0 0.0
2015-May-13 00:31N 35°22' E 139°41'0 0.0
2015-May-12 23:34N 35°22' E 139°41'0 0.0
2015-May-12 22:33N 35°22' E 139°41'0 0.0
2015-May-12 21:32N 35°22' E 139°41'0 0.0
2015-May-12 20:32N 35°22' E 139°41'0 0.0
2015-May-12 19:33N 35°22' E 139°41'0 0.0
2015-May-12 18:33N 35°22' E 139°41'0 0.0
2015-May-12 17:33N 35°22' E 139°41'0 0.0
2015-May-12 16:26N 35°22' E 139°41'0 0.0
2015-May-12 15:33N 35°22' E 139°41'0 0.0
2015-May-12 14:30N 35°22' E 139°40'0 0.4
2015-May-12 13:32N 35°22' E 139°40'0 0.0
2015-May-12 12:26N 35°22' E 139°40'0 0.0
2015-May-12 11:33N 35°22' E 139°40'0 0.0
2015-May-12 10:34N 35°22' E 139°40'0 0.0
2015-May-12 09:33N 35°22' E 139°40'0 0.0
2015-May-12 08:31N 35°22' E 139°40'0 0.0
2015-May-12 07:33N 35°22' E 139°40'0 0.0
2015-May-12 06:33N 35°22' E 139°40'0 0.0
2015-May-12 05:33N 35°22' E 139°40'0 0.0
2015-May-12 04:32N 35°22' E 139°40'0 0.0
2015-May-12 03:30N 35°22' E 139°40'0 0.0
2015-May-12 02:33N 35°22' E 139°40'0 0.0
2015-May-12 01:33N 35°22' E 139°40'0 0.0
2015-May-12 00:32N 35°22' E 139°40'0 0.0
2015-May-11 23:33N 35°22' E 139°40'0 0.0
2015-May-11 22:33N 35°22' E 139°40'0 0.0
2015-May-11 21:33N 35°22' E 139°40'0 0.0
2015-May-11 20:33N 35°22' E 139°40'0 0.0
2015-May-11 19:33N 35°22' E 139°40'0 0.0
2015-May-11 18:33N 35°22' E 139°40'0 0.0
2015-May-11 17:33N 35°22' E 139°40'0 0.0
2015-May-11 16:33N 35°22' E 139°40'0 0.0
2015-May-11 15:33N 35°22' E 139°40'0 0.0
2015-May-11 14:33N 35°22' E 139°40'0 0.0
2015-May-11 13:33N 35°22' E 139°40'0 0.0
2015-May-11 12:33N 35°22' E 139°40'0 0.0
2015-May-11 11:33N 35°22' E 139°40'0 0.0
2015-May-11 10:33N 35°22' E 139°40'0 0.0
2015-May-11 09:33N 35°22' E 139°40'0 0.0
2015-May-11 08:32N 35°22' E 139°40'0 0.0
2015-May-11 07:32N 35°22' E 139°40'1 1.3
2015-May-11 06:33N 35°23' E 139°41'8 8.2
2015-May-11 05:33N 35°21' E 139°51'0 0.1
2015-May-11 04:33N 35°21' E 139°51'0 0.0
2015-May-11 03:33N 35°21' E 139°51'0 0.0
2015-May-11 02:33N 35°21' E 139°51'0 0.0
2015-May-11 01:33N 35°21' E 139°51'0 0.0
2015-May-11 00:33N 35°21' E 139°51'0 0.0
2015-May-10 23:33N 35°21' E 139°51'0 0.0
2015-May-10 22:33N 35°21' E 139°51'0 0.0
2015-May-10 21:33N 35°21' E 139°51'0 0.0
2015-May-10 20:33N 35°21' E 139°51'0 0.0
2015-May-10 19:33N 35°21' E 139°51'0 0.0
2015-May-10 18:33N 35°21' E 139°51'0 0.0
2015-May-10 17:33N 35°21' E 139°51'0 0.0
2015-May-10 16:33N 35°21' E 139°51'0 0.0
2015-May-10 15:33N 35°21' E 139°51'0 0.0
2015-May-10 14:33N 35°21' E 139°51'0 0.0
2015-May-10 13:33N 35°21' E 139°51'0 0.0
2015-May-10 12:33N 35°21' E 139°51'0 0.0
2015-May-10 11:33N 35°21' E 139°51'0 0.0
2015-May-10 10:33N 35°21' E 139°51'0 0.0
2015-May-10 09:33N 35°21' E 139°51'0 0.0
2015-May-10 08:33N 35°21' E 139°51'0 0.0
2015-May-10 07:33N 35°21' E 139°51'0 0.0
2015-May-10 06:33N 35°21' E 139°51'0 0.0
2015-May-10 05:33N 35°21' E 139°51'2 1.8
2015-May-10 04:31N 35°22' E 139°49'0 0.1
2015-May-10 03:31N 35°22' E 139°49'3 3.2
2015-May-10 02:34N 35°22' E 139°45'1110.8
2015-May-10 01:33N 35°11' E 139°47'1111.3
2015-May-10 00:33N 35°02' E 139°38'  

Dump ship's entire track history